createdAt,value
2018-04-22T00:02:18.670Z,18.90
2018-04-22T00:05:22.461Z,19.00
2018-04-22T00:08:27.020Z,18.90
2018-04-22T00:11:31.570Z,18.90
2018-04-22T00:14:35.412Z,18.90
2018-04-22T00:17:39.242Z,18.90
2018-04-22T00:20:43.030Z,18.90
2018-04-22T00:23:47.593Z,19.00
2018-04-22T00:26:51.414Z,19.00
2018-04-22T00:29:55.237Z,19.00
2018-04-22T00:32:59.061Z,19.00
2018-04-22T00:36:02.866Z,19.00
2018-04-22T00:39:07.474Z,19.00
2018-04-22T00:42:11.293Z,19.00
2018-04-22T00:45:15.097Z,19.00
2018-04-22T00:48:18.999Z,19.00
2018-04-22T00:51:23.526Z,19.10
2018-04-22T00:54:28.081Z,19.20
2018-04-22T00:57:32.643Z,19.20
2018-04-22T01:00:36.757Z,19.20
2018-04-22T01:03:41.304Z,19.20
2018-04-22T01:06:45.125Z,19.30
2018-04-22T01:09:48.953Z,19.30
2018-04-22T01:12:52.748Z,19.30
2018-04-22T01:15:56.533Z,19.30
2018-04-22T01:19:00.724Z,19.30
2018-04-22T01:22:04.618Z,19.20
2018-04-22T01:25:08.429Z,19.20
2018-04-22T01:28:12.244Z,19.20
2018-04-22T01:31:16.052Z,19.20
2018-04-22T01:34:19.953Z,19.20
2018-04-22T01:37:24.484Z,19.20
2018-04-22T01:40:29.027Z,19.20
2018-04-22T01:43:33.603Z,19.20
2018-04-22T01:46:37.482Z,19.10
2018-04-22T01:49:41.289Z,19.20
2018-04-22T01:52:45.074Z,19.20
2018-04-22T01:55:48.875Z,19.20
2018-04-22T01:58:53.438Z,19.20
2018-04-22T02:01:57.220Z,19.20
2018-04-22T02:05:01.034Z,19.10
2018-04-22T02:08:04.829Z,19.10
2018-04-22T02:11:08.641Z,19.10
2018-04-22T02:14:12.444Z,19.10
2018-04-22T02:17:16.225Z,19.10
2018-04-22T02:20:20.093Z,19.20
2018-04-22T02:23:23.902Z,19.10
2018-04-22T02:26:28.421Z,19.20
2018-04-22T02:29:32.251Z,19.20
2018-04-22T02:32:36.783Z,19.20
2018-04-22T02:35:40.623Z,19.20
2018-04-22T02:38:45.182Z,19.20
2018-04-22T02:41:48.967Z,19.20
2018-04-22T02:44:52.831Z,19.20
2018-04-22T02:47:56.613Z,19.20
2018-04-22T02:51:00.418Z,19.20
2018-04-22T02:54:04.239Z,19.30
2018-04-22T02:57:08.028Z,19.30
2018-04-22T03:00:11.845Z,19.30
2018-04-22T03:03:15.637Z,19.30
2018-04-22T03:06:19.454Z,19.30
2018-04-22T03:09:23.320Z,19.30
2018-04-22T03:12:27.113Z,19.30
2018-04-22T03:15:30.956Z,19.30
2018-04-22T03:18:35.608Z,19.30
2018-04-22T03:21:40.245Z,19.30
2018-04-22T03:24:44.797Z,19.30
2018-04-22T03:27:48.583Z,19.30
2018-04-22T03:30:52.392Z,19.30
2018-04-22T03:33:56.221Z,19.30
2018-04-22T03:37:00.090Z,19.20
2018-04-22T03:40:04.762Z,19.20
2018-04-22T03:43:08.678Z,19.20
2018-04-22T03:46:12.513Z,19.20
2018-04-22T03:49:16.324Z,19.20
2018-04-22T03:52:20.136Z,19.20
2018-04-22T03:55:24.681Z,19.20
2018-04-22T03:58:28.484Z,19.20
2018-04-22T04:01:33.064Z,19.20
2018-04-22T04:04:36.874Z,19.20
2018-04-22T04:07:40.815Z,19.20
2018-04-22T04:10:45.345Z,19.30
2018-04-22T04:13:49.174Z,19.30
2018-04-22T04:16:52.994Z,19.30
2018-04-22T04:20:14.548Z,19.40
2018-04-22T04:23:18.328Z,19.40
2018-04-22T04:30:20.177Z,19.50
2018-04-22T04:33:24.004Z,19.50
2018-04-22T04:36:27.814Z,19.60
2018-04-22T04:39:32.333Z,19.60
2018-04-22T04:42:36.274Z,19.60
2018-04-22T04:45:40.138Z,19.60
2018-04-22T04:48:43.923Z,19.70
2018-04-22T04:51:47.766Z,19.70
2018-04-22T04:54:51.562Z,19.70
2018-04-22T04:57:55.370Z,19.70
2018-04-22T05:00:59.177Z,19.70
2018-04-22T05:04:02.969Z,19.80
2018-04-22T05:07:06.772Z,19.80
2018-04-22T05:10:11.324Z,19.80
2018-04-22T05:13:15.844Z,19.80
2018-04-22T05:16:19.653Z,19.80
2018-04-22T05:19:23.529Z,19.80
2018-04-22T05:22:27.334Z,19.90
2018-04-22T05:25:31.983Z,19.90
2018-04-22T05:28:36.514Z,19.90
2018-04-22T05:31:41.085Z,19.90
2018-04-22T05:34:44.882Z,19.90
2018-04-22T05:37:49.442Z,19.90
2018-04-22T05:40:53.246Z,19.90
2018-04-22T05:43:57.796Z,20.00
2018-04-22T05:47:02.392Z,20.00
2018-04-22T05:50:06.400Z,20.00
2018-04-22T05:53:10.210Z,20.00
2018-04-22T05:56:14.013Z,20.00
2018-04-22T05:59:18.579Z,20.10
2018-04-22T06:02:22.386Z,20.10
2018-04-22T06:05:26.901Z,20.10
2018-04-22T06:08:30.707Z,20.10
2018-04-22T06:11:34.538Z,20.10
2018-04-22T06:14:38.356Z,20.20
2018-04-22T06:17:42.160Z,20.10
2018-04-22T06:20:46.052Z,20.20
2018-04-22T06:23:49.833Z,20.20
2018-04-22T06:26:53.805Z,20.20
2018-04-22T06:29:57.636Z,20.20
2018-04-22T06:33:01.434Z,20.20
2018-04-22T06:36:05.273Z,20.20
2018-04-22T06:39:09.097Z,20.30
2018-04-22T06:42:13.650Z,20.30
2018-04-22T06:45:17.439Z,20.30
2018-04-22T06:48:21.245Z,20.30
2018-04-22T06:51:25.048Z,20.20
2018-04-22T06:54:28.828Z,20.30
2018-04-22T06:57:33.581Z,20.40
2018-04-22T07:00:37.385Z,20.40
2018-04-22T07:03:41.246Z,20.30
2018-04-22T07:06:45.063Z,20.20
2018-04-22T07:09:48.919Z,20.10
2018-04-22T07:12:52.775Z,20.10
2018-04-22T07:15:56.549Z,20.00
2018-04-22T07:19:00.353Z,20.00
2018-04-22T07:22:05.093Z,19.90
2018-04-22T07:25:09.685Z,19.90
2018-04-22T07:28:13.574Z,19.90
2018-04-22T07:31:17.392Z,19.80
2018-04-22T07:34:21.180Z,19.80
2018-04-22T07:37:24.993Z,19.80
2018-04-22T07:40:28.775Z,19.80
2018-04-22T07:43:32.594Z,19.70
2018-04-22T07:46:36.422Z,19.70
2018-04-22T07:49:41.870Z,19.60
2018-04-22T07:52:46.096Z,19.60
2018-04-22T07:55:50.633Z,19.50
2018-04-22T07:58:55.194Z,19.40
2018-04-22T08:01:59.010Z,19.40
2018-04-22T08:05:02.859Z,19.30
2018-04-22T08:08:06.682Z,19.20
2018-04-22T08:11:10.505Z,19.00
2018-04-22T08:14:14.452Z,18.90
2018-04-22T08:17:18.275Z,18.90
2018-04-22T08:20:22.178Z,18.90
2018-04-22T08:23:26.090Z,18.90
2018-04-22T08:26:30.619Z,18.70
2018-04-22T08:29:34.429Z,18.70
2018-04-22T08:32:38.472Z,18.70
2018-04-22T08:35:43.052Z,18.60
2018-04-22T08:38:46.858Z,18.60
2018-04-22T08:41:50.645Z,18.70
2018-04-22T08:44:54.464Z,18.60
2018-04-22T08:47:58.339Z,18.50
2018-04-22T08:51:02.172Z,18.40
2018-04-22T08:54:06.046Z,18.50
2018-04-22T08:57:09.993Z,18.50
2018-04-22T09:00:13.788Z,18.60
2018-04-22T09:03:17.590Z,18.60
2018-04-22T09:06:21.365Z,18.50
2018-04-22T09:09:25.906Z,18.30
2018-04-22T09:12:30.458Z,18.30
2018-04-22T09:15:34.318Z,18.20
2018-04-22T09:18:38.180Z,18.40
2018-04-22T09:21:41.986Z,18.50
2018-04-22T09:24:45.794Z,18.60
2018-04-22T09:27:49.700Z,18.80
2018-04-22T09:30:53.540Z,18.80
2018-04-22T09:33:57.369Z,18.90
2018-04-22T09:37:01.174Z,18.90
2018-04-22T09:40:05.108Z,18.90
2018-04-22T09:43:08.958Z,18.90
2018-04-22T09:46:13.527Z,18.90
2018-04-22T09:49:18.105Z,18.90
2018-04-22T09:52:21.931Z,18.90
2018-04-22T09:55:25.847Z,18.90
2018-04-22T09:58:29.674Z,18.90
2018-04-22T10:01:37.280Z,18.90
2018-04-22T10:04:41.883Z,18.90
2018-04-22T10:07:45.711Z,18.90
2018-04-22T10:10:50.248Z,18.90
2018-04-22T10:13:54.122Z,18.90
2018-04-22T10:16:57.905Z,18.90
2018-04-22T10:20:01.711Z,18.90
2018-04-22T10:23:05.566Z,18.90
2018-04-22T10:26:09.434Z,18.90
2018-04-22T10:29:13.257Z,19.00
2018-04-22T10:32:17.039Z,19.00
2018-04-22T10:35:20.889Z,19.00
2018-04-22T10:38:24.705Z,19.00
2018-04-22T10:41:28.514Z,19.00
2018-04-22T10:44:33.185Z,19.00
2018-04-22T10:47:36.981Z,19.00
2018-04-22T10:50:41.546Z,19.00
2018-04-22T10:53:45.357Z,19.00
2018-04-22T10:56:49.904Z,19.00
2018-04-22T10:59:54.588Z,19.00
2018-04-22T11:02:58.354Z,19.00
2018-04-22T11:06:02.182Z,19.00
2018-04-22T11:09:06.758Z,19.00
2018-04-22T11:12:10.581Z,19.00
2018-04-22T11:15:14.499Z,18.80
2018-04-22T11:18:18.328Z,18.60
2018-04-22T11:21:22.117Z,18.50
2018-04-22T11:24:25.919Z,18.50
2018-04-22T11:27:29.717Z,18.40
2018-04-22T11:30:33.522Z,18.30
2018-04-22T11:33:37.475Z,18.30
2018-04-22T11:36:41.606Z,18.30
2018-04-22T11:39:45.442Z,18.30
2018-04-22T11:42:49.324Z,18.30
2018-04-22T11:45:53.145Z,18.30
2018-04-22T11:48:57.800Z,18.30
2018-04-22T11:52:01.589Z,18.30
2018-04-22T11:55:05.618Z,18.30
2018-04-22T11:58:11.062Z,18.40
2018-04-22T12:01:14.893Z,18.40
2018-04-22T12:04:18.699Z,18.40
2018-04-22T12:07:22.479Z,18.40
2018-04-22T12:10:27.020Z,18.50
2018-04-22T12:13:31.575Z,18.40
2018-04-22T12:16:35.397Z,18.40
2018-04-22T12:19:39.411Z,18.40
2018-04-22T12:22:43.202Z,18.40
2018-04-22T12:25:47.045Z,18.40
2018-04-22T12:28:51.568Z,18.40
2018-04-22T12:31:55.405Z,18.40
2018-04-22T12:34:59.194Z,18.40
2018-04-22T12:38:02.978Z,18.30
2018-04-22T12:41:06.788Z,18.30
2018-04-22T12:44:11.546Z,18.20
2018-04-22T12:47:15.328Z,18.20
2018-04-22T12:50:19.140Z,18.20
2018-04-22T12:53:22.924Z,18.20
2018-04-22T12:56:26.722Z,18.20
2018-04-22T12:59:31.283Z,18.20
2018-04-22T13:02:35.850Z,18.30
2018-04-22T13:05:39.674Z,18.30
2018-04-22T13:08:43.460Z,18.30
2018-04-22T13:11:48.017Z,18.40
2018-04-22T13:14:51.869Z,18.30
2018-04-22T13:17:55.673Z,18.40
2018-04-22T13:20:59.493Z,18.40
2018-04-22T13:24:03.274Z,18.40
2018-04-22T13:27:07.182Z,18.40
2018-04-22T13:30:11.004Z,18.40
2018-04-22T13:33:14.789Z,18.40
2018-04-22T13:36:18.594Z,18.50
2018-04-22T13:39:23.121Z,18.50
2018-04-22T13:42:26.925Z,18.50
2018-04-22T13:45:30.736Z,18.50
2018-04-22T13:48:34.727Z,18.50
2018-04-22T13:51:39.277Z,18.50
2018-04-22T13:54:43.085Z,18.50
2018-04-22T13:57:47.605Z,18.50
2018-04-22T14:00:51.408Z,18.50
2018-04-22T14:03:55.270Z,18.50
2018-04-22T14:06:59.926Z,18.50
2018-04-22T14:10:03.751Z,18.50
2018-04-22T14:13:07.560Z,18.50
2018-04-22T14:16:12.233Z,18.50
2018-04-22T14:19:16.737Z,18.50
2018-04-22T14:22:20.584Z,18.50
2018-04-22T14:25:25.976Z,18.50
2018-04-22T14:28:29.777Z,18.50
2018-04-22T14:31:33.605Z,18.60
2018-04-22T14:34:37.408Z,18.70
2018-04-22T14:37:41.243Z,18.70
2018-04-22T14:40:45.066Z,18.70
2018-04-22T14:47:35.217Z,18.80
2018-04-22T14:50:39.091Z,18.90
2018-04-22T14:53:42.963Z,18.90
2018-04-22T14:56:47.512Z,18.90
2018-04-22T14:59:52.061Z,18.90
2018-04-22T15:02:55.880Z,18.90
2018-04-22T15:05:59.719Z,18.90
2018-04-22T15:09:03.538Z,18.90
2018-04-22T15:12:07.364Z,18.80
2018-04-22T15:15:11.170Z,18.80
2018-04-22T15:18:15.013Z,18.80
2018-04-22T15:21:18.830Z,18.80
2018-04-22T15:24:22.625Z,18.80
2018-04-22T15:27:27.176Z,18.80
2018-04-22T15:30:31.025Z,18.80
2018-04-22T15:33:35.072Z,18.90
2018-04-22T15:36:38.961Z,18.90
2018-04-22T15:39:42.778Z,18.90
2018-04-22T15:42:47.442Z,18.90
2018-04-22T15:45:51.369Z,18.90
2018-04-22T15:48:55.513Z,19.00
2018-04-22T15:51:59.345Z,19.00
2018-04-22T15:55:03.171Z,19.10
2018-04-22T15:58:07.036Z,19.10
2018-04-22T16:01:10.932Z,19.10
2018-04-22T16:04:14.724Z,19.10
2018-04-22T16:07:18.644Z,19.10
2018-04-22T16:10:22.475Z,19.10
2018-04-22T16:13:26.295Z,19.10
2018-04-22T16:16:30.116Z,19.10
2018-04-22T16:19:33.928Z,19.10
2018-04-22T16:22:38.482Z,19.00
2018-04-22T16:25:42.282Z,19.10
2018-04-22T16:28:46.135Z,19.10
2018-04-22T16:31:49.994Z,19.10
2018-04-22T16:34:53.819Z,19.10
2018-04-22T16:37:57.755Z,19.10
2018-04-22T16:41:01.657Z,19.10
2018-04-22T16:44:05.743Z,19.10
2018-04-22T16:47:09.628Z,19.10
2018-04-22T16:50:13.429Z,19.10
2018-04-22T16:53:17.342Z,19.10
2018-04-22T16:56:21.169Z,19.10
2018-04-22T16:59:24.957Z,19.10
2018-04-22T17:02:28.793Z,19.10
2018-04-22T17:05:34.424Z,19.10
2018-04-22T17:08:38.258Z,19.10
2018-04-22T17:11:42.080Z,19.20
2018-04-22T17:14:45.951Z,19.30
2018-04-22T17:17:50.505Z,19.30
2018-04-22T17:20:54.300Z,19.30
2018-04-22T17:23:58.151Z,19.40
2018-04-22T17:27:01.974Z,19.40
2018-04-22T17:30:05.782Z,19.40
2018-04-22T17:33:10.400Z,19.50
2018-04-22T17:36:14.197Z,19.50
2018-04-22T17:39:18.041Z,19.50
2018-04-22T17:42:21.909Z,19.60
2018-04-22T17:45:26.461Z,19.60
2018-04-22T17:48:30.280Z,19.60
2018-04-22T17:51:34.122Z,19.60
2018-04-22T17:54:37.935Z,19.70
2018-04-22T17:57:41.874Z,19.70
2018-04-22T18:00:45.692Z,19.70
2018-04-22T18:03:49.510Z,19.70
2018-04-22T18:06:53.306Z,19.80
2018-04-22T18:09:57.858Z,19.80
2018-04-22T18:13:02.428Z,19.80
2018-04-22T18:16:06.237Z,19.80
2018-04-22T18:19:10.103Z,19.90
2018-04-22T18:22:13.934Z,19.80
2018-04-22T18:25:18.513Z,19.80
2018-04-22T18:28:23.073Z,19.80
2018-04-22T18:31:26.874Z,19.80
2018-04-22T18:34:31.433Z,19.80
2018-04-22T18:37:35.261Z,19.80
2018-04-22T18:40:39.083Z,19.80
2018-04-22T18:43:42.902Z,19.80
2018-04-22T18:46:47.458Z,19.80
2018-04-22T18:49:51.268Z,19.80
2018-04-22T18:52:55.921Z,19.90
2018-04-22T18:55:59.741Z,19.80
2018-04-22T18:59:03.616Z,19.80
2018-04-22T19:02:07.492Z,19.80
2018-04-22T19:05:11.367Z,19.80
2018-04-22T19:08:15.287Z,19.80
2018-04-22T19:11:19.070Z,19.80
2018-04-22T19:14:22.902Z,19.90
2018-04-22T19:17:26.721Z,19.90
2018-04-22T19:20:30.632Z,19.90
2018-04-22T19:23:35.213Z,19.90
2018-04-22T19:26:39.027Z,19.90
2018-04-22T19:29:42.878Z,19.90
2018-04-22T19:32:46.765Z,19.90
2018-04-22T19:35:50.592Z,20.00
2018-04-22T19:38:54.423Z,20.00
2018-04-22T19:41:58.233Z,19.90
2018-04-22T19:45:02.063Z,19.90
2018-04-22T19:48:05.903Z,19.90
2018-04-22T19:51:09.943Z,19.80
2018-04-22T19:54:13.778Z,19.80
2018-04-22T19:57:17.575Z,19.80
2018-04-22T20:00:21.389Z,19.80
2018-04-22T20:03:25.208Z,19.70
2018-04-22T20:06:29.022Z,19.70
2018-04-22T20:09:33.596Z,19.70
2018-04-22T20:12:38.795Z,19.70
2018-04-22T20:15:42.619Z,19.70
2018-04-22T20:18:46.430Z,19.60
2018-04-22T20:21:50.224Z,19.60
2018-04-22T20:24:54.147Z,19.60
2018-04-22T20:27:57.931Z,19.60
2018-04-22T20:31:02.492Z,19.60
2018-04-22T20:34:06.335Z,19.50
2018-04-22T20:37:10.132Z,19.50
2018-04-22T20:40:14.787Z,19.50
2018-04-22T20:43:20.500Z,19.50
2018-04-22T20:46:24.414Z,19.50
2018-04-22T20:49:29.334Z,19.50
2018-04-22T20:52:33.167Z,19.50
2018-04-22T20:55:36.995Z,19.50
2018-04-22T20:58:40.826Z,19.50
2018-04-22T21:01:44.641Z,19.40
2018-04-22T21:04:48.460Z,19.40
2018-04-22T21:07:52.254Z,19.40
2018-04-22T21:10:56.115Z,19.40
2018-04-22T21:13:59.935Z,19.40
2018-04-22T21:17:03.925Z,19.40
2018-04-22T21:20:08.701Z,19.40
2018-04-22T21:23:12.531Z,19.40
2018-04-22T21:26:16.356Z,19.40
2018-04-22T21:29:20.182Z,19.40
2018-04-22T21:32:23.999Z,19.40
2018-04-22T21:35:28.752Z,19.40
2018-04-22T21:38:32.565Z,19.40
2018-04-22T21:41:37.119Z,19.40
2018-04-22T21:44:40.947Z,19.40
2018-04-22T21:47:44.731Z,19.40
2018-04-22T21:50:48.553Z,19.40
2018-04-22T21:53:52.590Z,19.40
2018-04-22T21:56:56.384Z,19.40
2018-04-22T22:00:00.202Z,19.40
2018-04-22T22:03:04.418Z,19.50
2018-04-22T22:06:08.380Z,19.40
2018-04-22T22:09:12.204Z,19.40
2018-04-22T22:12:15.992Z,19.40
2018-04-22T22:15:19.809Z,19.40
2018-04-22T22:18:23.594Z,19.40
2018-04-22T22:21:27.398Z,19.50
2018-04-22T22:24:31.298Z,19.50
2018-04-22T22:27:35.136Z,19.50
2018-04-22T22:30:38.968Z,19.40
2018-04-22T22:33:42.775Z,19.40
2018-04-22T22:36:46.676Z,19.40
2018-04-22T22:39:50.490Z,19.40
2018-04-22T22:42:55.050Z,19.40
2018-04-22T22:45:58.865Z,19.40
2018-04-22T22:49:02.698Z,19.40
2018-04-22T22:52:06.669Z,19.40
2018-04-22T22:55:10.510Z,19.40
2018-04-22T22:58:14.372Z,19.40
2018-04-22T23:01:18.177Z,19.40
2018-04-22T23:04:22.715Z,19.40
2018-04-22T23:07:27.285Z,19.40
2018-04-22T23:10:31.101Z,19.40
2018-04-22T23:13:34.981Z,19.40
2018-04-22T23:16:38.826Z,19.40
2018-04-22T23:19:43.421Z,19.40
2018-04-22T23:22:47.221Z,19.40
2018-04-22T23:25:51.033Z,19.40
2018-04-22T23:28:55.564Z,19.40
2018-04-22T23:32:00.129Z,19.40
2018-04-22T23:35:04.232Z,19.40
2018-04-22T23:38:08.797Z,19.40
2018-04-22T23:41:12.627Z,19.40
2018-04-22T23:44:16.435Z,19.40
2018-04-22T23:47:21.113Z,19.30
2018-04-22T23:50:24.940Z,19.40
2018-04-22T23:53:28.741Z,19.30
2018-04-22T23:56:33.574Z,19.30
2018-04-22T23:59:38.330Z,19.40
